createdAt,value
2018-05-01T00:01:09.942Z,10.30
2018-05-01T00:01:48.937Z,10.25
2018-05-01T00:02:48.937Z,10.26
2018-05-01T00:03:48.947Z,10.28
2018-05-01T00:04:48.953Z,10.21
2018-05-01T00:05:49.065Z,10.30
2018-05-01T00:07:09.916Z,10.12
2018-05-01T00:07:48.929Z,10.19
2018-05-01T00:08:48.925Z,10.12
2018-05-01T00:09:48.923Z,10.25
2018-05-01T00:10:48.888Z,10.10
2018-05-01T00:11:48.885Z,10.14
2018-05-01T00:13:09.889Z,10.09
2018-05-01T00:13:48.920Z,10.06
2018-05-01T00:14:48.918Z,10.14
2018-05-01T00:15:48.868Z,10.09
2018-05-01T00:16:48.876Z,10.12
2018-05-01T00:17:48.901Z,10.15
2018-05-01T00:19:09.839Z,10.07
2018-05-01T00:19:48.846Z,10.09
2018-05-01T00:20:48.864Z,10.06
2018-05-01T00:21:48.836Z,10.06
2018-05-01T00:22:48.868Z,10.03
2018-05-01T00:23:48.889Z,9.94
2018-05-01T00:25:09.816Z,9.97
2018-05-01T00:25:48.830Z,10.01
2018-05-01T00:26:48.812Z,9.96
2018-05-01T00:27:48.823Z,9.97
2018-05-01T00:28:48.830Z,9.99
2018-05-01T00:29:48.826Z,9.97
2018-05-01T00:31:09.831Z,9.99
2018-05-01T00:31:48.827Z,9.99
2018-05-01T00:32:48.836Z,9.97
2018-05-01T00:33:48.816Z,10.01
2018-05-01T00:34:48.833Z,9.99
2018-05-01T00:35:48.818Z,9.97
2018-05-01T00:37:09.793Z,9.93
2018-05-01T00:37:48.758Z,10.00
2018-05-01T00:38:48.786Z,9.89
2018-05-01T00:39:48.791Z,9.91
2018-05-01T00:40:48.785Z,9.88
2018-05-01T00:41:48.726Z,9.85
2018-05-01T00:43:09.724Z,9.88
2018-05-01T00:43:48.728Z,9.81
2018-05-01T00:44:48.729Z,9.88
2018-05-01T00:45:48.725Z,9.83
2018-05-01T00:46:48.737Z,9.88
2018-05-01T00:47:48.721Z,9.83
2018-05-01T00:49:09.675Z,9.81
2018-05-01T00:49:48.752Z,9.79
2018-05-01T00:50:48.707Z,9.78
2018-05-01T00:51:48.745Z,9.71
2018-05-01T00:52:48.725Z,9.71
2018-05-01T00:53:48.694Z,9.67
2018-05-01T00:55:09.649Z,9.73
2018-05-01T00:55:48.660Z,9.76
2018-05-01T00:56:48.687Z,9.70
2018-05-01T00:57:48.692Z,9.67
2018-05-01T00:58:48.631Z,9.71
2018-05-01T00:59:48.634Z,9.73
2018-05-01T01:01:09.617Z,9.70
2018-05-01T01:01:48.615Z,9.70
2018-05-01T01:02:48.678Z,9.64
2018-05-01T01:03:48.633Z,9.66
2018-05-01T01:04:48.634Z,9.58
2018-05-01T01:05:48.634Z,9.58
2018-05-01T01:07:09.583Z,9.60
2018-05-01T01:07:48.599Z,9.53
2018-05-01T01:08:48.597Z,9.56
2018-05-01T01:09:48.620Z,9.57
2018-05-01T01:10:48.571Z,9.64
2018-05-01T01:11:48.575Z,9.58
2018-05-01T01:13:09.551Z,9.57
2018-05-01T01:13:48.597Z,9.58
2018-05-01T01:14:48.600Z,9.60
2018-05-01T01:15:48.549Z,9.50
2018-05-01T01:16:48.560Z,9.48
2018-05-01T01:17:48.546Z,9.48
2018-05-01T01:19:09.527Z,9.49
2018-05-01T01:19:48.538Z,9.46
2018-05-01T01:20:48.546Z,9.46
2018-05-01T01:21:48.530Z,9.49
2018-05-01T01:22:48.577Z,9.48
2018-05-01T01:23:48.570Z,9.48
2018-05-01T01:25:09.577Z,9.52
2018-05-01T01:25:48.499Z,9.43
2018-05-01T01:26:48.478Z,9.46
2018-05-01T01:27:48.487Z,9.46
2018-05-01T01:28:48.493Z,9.46
2018-05-01T01:29:48.501Z,9.49
2018-05-01T02:02:40.975Z,9.32
2018-05-01T02:03:40.937Z,9.28
2018-05-01T02:05:33.877Z,9.28
2018-05-01T02:06:33.838Z,9.25
2018-05-01T02:08:26.896Z,9.27
2018-05-01T02:09:26.863Z,9.27
2018-05-01T02:11:19.776Z,9.27
2018-05-01T02:12:19.747Z,9.24
2018-05-01T02:14:12.697Z,9.28
2018-05-01T02:15:12.738Z,9.28
2018-05-01T02:17:05.627Z,9.30
2018-05-01T02:18:05.598Z,9.30
2018-05-01T02:19:58.531Z,9.23
2018-05-01T02:20:58.513Z,9.24
2018-05-01T02:22:51.409Z,9.27
2018-05-01T02:23:51.401Z,9.30
2018-05-01T02:25:44.350Z,9.25
2018-05-01T02:26:44.306Z,9.20
2018-05-01T02:28:37.272Z,9.28
2018-05-01T02:29:37.245Z,9.21
2018-05-01T02:31:30.237Z,9.31
2018-05-01T02:32:30.219Z,9.16
2018-05-01T02:34:23.174Z,9.18
2018-05-01T02:35:23.161Z,9.20
2018-05-01T02:37:16.144Z,9.24
2018-05-01T02:38:16.142Z,9.21
2018-05-01T02:40:09.077Z,9.24
2018-05-01T02:41:09.132Z,9.18
2018-05-01T02:42:09.033Z,9.10
2018-05-01T02:43:09.035Z,9.16
2018-05-01T02:44:09.054Z,9.09
2018-05-01T02:45:09.026Z,9.09
2018-05-01T02:46:09.020Z,9.09
2018-05-01T02:47:09.019Z,9.06
2018-05-01T02:48:08.997Z,9.10
2018-05-01T02:49:09.002Z,9.09
2018-05-01T02:50:08.993Z,9.10
2018-05-01T02:51:08.988Z,9.09
2018-05-01T02:52:08.990Z,9.13
2018-05-01T02:53:08.982Z,9.10
2018-05-01T02:54:08.970Z,9.12
2018-05-01T02:55:08.969Z,9.06
2018-05-01T02:56:08.964Z,9.02
2018-05-01T02:57:08.955Z,8.97
2018-05-01T02:58:08.955Z,9.06
2018-05-01T02:59:08.945Z,8.99
2018-05-01T03:00:08.939Z,9.05
2018-05-01T03:01:08.954Z,8.94
2018-05-01T03:02:08.918Z,8.94
2018-05-01T03:03:08.924Z,8.97
2018-05-01T03:04:08.921Z,8.94
2018-05-01T03:05:08.916Z,8.93
2018-05-01T03:06:08.912Z,8.91
2018-05-01T03:07:08.903Z,9.02
2018-05-01T03:08:08.897Z,8.97
2018-05-01T03:09:08.884Z,8.97
2018-05-01T03:10:08.885Z,8.88
2018-05-01T03:11:08.868Z,8.88
2018-05-01T03:12:08.879Z,8.97
2018-05-01T03:13:08.865Z,8.91
2018-05-01T03:14:08.864Z,8.97
2018-05-01T03:15:08.851Z,8.93
2018-05-01T03:16:08.847Z,8.97
2018-05-01T03:17:08.835Z,8.96
2018-05-01T03:18:08.839Z,8.93
2018-05-01T03:19:08.832Z,8.88
2018-05-01T03:20:08.826Z,8.94
2018-05-01T03:21:08.820Z,8.86
2018-05-01T03:22:08.811Z,8.83
2018-05-01T03:23:08.819Z,8.86
2018-05-01T03:24:08.804Z,8.90
2018-05-01T03:25:08.803Z,8.84
2018-05-01T03:26:08.791Z,8.84
2018-05-01T03:27:08.791Z,8.86
2018-05-01T03:28:08.776Z,8.83
2018-05-01T03:29:08.778Z,8.86
2018-05-01T03:30:08.764Z,8.81
2018-05-01T03:31:08.775Z,8.84
2018-05-01T03:32:08.760Z,8.88
2018-05-01T03:33:08.755Z,8.73
2018-05-01T03:34:08.744Z,8.76
2018-05-01T03:35:08.737Z,8.78
2018-05-01T03:36:08.747Z,8.86
2018-05-01T03:37:08.743Z,8.86
2018-05-01T03:38:08.761Z,8.84
2018-05-01T03:39:08.803Z,8.87
2018-05-01T03:40:08.713Z,8.86
2018-05-01T03:41:08.703Z,8.84
2018-05-01T03:42:08.697Z,8.75
2018-05-01T03:43:08.703Z,8.81
2018-05-01T03:44:08.693Z,8.78
2018-05-01T03:45:08.675Z,8.76
2018-05-01T03:46:08.726Z,8.73
2018-05-01T03:47:08.670Z,8.73
2018-05-01T03:48:08.670Z,8.78
2018-05-01T03:49:08.659Z,8.83
2018-05-01T03:50:08.651Z,8.76
2018-05-01T03:51:08.659Z,8.78
2018-05-01T03:52:08.639Z,8.68
2018-05-01T03:53:08.650Z,8.83
2018-05-01T03:54:08.629Z,8.76
2018-05-01T03:55:08.630Z,8.84
2018-05-01T03:56:08.645Z,8.66
2018-05-01T03:57:08.611Z,8.78
2018-05-01T03:58:08.605Z,8.69
2018-05-01T03:59:08.606Z,8.79
2018-05-01T04:00:08.604Z,8.66
2018-05-01T04:01:08.590Z,8.72
2018-05-01T04:02:08.590Z,8.69
2018-05-01T04:03:08.579Z,8.69
2018-05-01T04:04:08.576Z,8.79
2018-05-01T04:05:08.569Z,8.68
2018-05-01T04:06:08.562Z,8.76
2018-05-01T04:07:08.559Z,8.73
2018-05-01T04:08:08.545Z,8.65
2018-05-01T04:09:08.549Z,8.68
2018-05-01T04:10:08.544Z,8.69
2018-05-01T04:11:08.534Z,8.63
2018-05-01T04:12:08.523Z,8.72
2018-05-01T04:13:08.528Z,8.71
2018-05-01T04:14:08.517Z,8.76
2018-05-01T04:15:08.528Z,8.75
2018-05-01T04:16:08.503Z,8.72
2018-05-01T04:17:08.500Z,8.78
2018-05-01T04:18:08.489Z,8.72
2018-05-01T04:19:08.483Z,8.68
2018-05-01T04:20:08.485Z,8.66
2018-05-01T04:21:08.472Z,8.72
2018-05-01T04:22:08.488Z,8.71
2018-05-01T04:23:08.470Z,8.68
2018-05-01T04:24:08.472Z,8.65
2018-05-01T04:25:08.455Z,8.71
2018-05-01T04:26:08.443Z,8.66
2018-05-01T04:27:08.447Z,8.66
2018-05-01T04:28:08.434Z,8.55
2018-05-01T04:29:08.435Z,8.68
2018-05-01T04:30:08.421Z,8.68
2018-05-01T04:31:08.419Z,8.57
2018-05-01T04:32:08.406Z,8.63
2018-05-01T04:33:08.402Z,8.62
2018-05-01T04:34:08.399Z,8.53
2018-05-01T04:35:08.394Z,8.53
2018-05-01T04:36:08.385Z,8.54
2018-05-01T04:37:08.382Z,8.55
2018-05-01T04:38:08.370Z,8.45
2018-05-01T04:39:08.389Z,8.55
2018-05-01T04:40:08.367Z,8.47
2018-05-01T04:41:08.348Z,8.47
2018-05-01T04:42:08.351Z,8.45
2018-05-01T04:43:08.353Z,8.42
2018-05-01T04:44:08.341Z,8.40
2018-05-01T04:45:08.325Z,8.44
2018-05-01T04:46:08.322Z,8.37
2018-05-01T04:47:08.316Z,8.36
2018-05-01T04:48:08.313Z,8.40
2018-05-01T04:49:08.302Z,8.45
2018-05-01T04:50:08.292Z,8.35
2018-05-01T04:51:08.283Z,8.39
2018-05-01T04:52:08.306Z,8.39
2018-05-01T04:53:08.279Z,8.40
2018-05-01T04:54:08.287Z,8.30
2018-05-01T04:55:08.278Z,8.35
2018-05-01T04:56:08.306Z,8.35
2018-05-01T04:57:08.251Z,8.37
2018-05-01T04:58:08.255Z,8.42
2018-05-01T04:59:08.255Z,8.33
2018-05-01T05:00:08.255Z,8.37
2018-05-01T05:01:08.992Z,8.35
2018-05-01T05:02:08.245Z,8.37
2018-05-01T05:03:08.217Z,8.37
2018-05-01T05:04:08.215Z,8.36
2018-05-01T05:05:08.204Z,8.37
2018-05-01T05:06:08.207Z,8.32
2018-05-01T05:07:08.206Z,8.36
2018-05-01T05:08:08.196Z,8.35
2018-05-01T05:09:08.181Z,8.37
2018-05-01T05:10:08.175Z,8.37
2018-05-01T05:11:08.171Z,8.36
2018-05-01T05:12:08.160Z,8.35
2018-05-01T05:13:08.152Z,8.36
2018-05-01T05:14:08.153Z,8.29
2018-05-01T05:15:08.162Z,8.35
2018-05-01T05:16:08.130Z,8.33
2018-05-01T05:17:08.167Z,8.32
2018-05-01T05:18:08.129Z,8.35
2018-05-01T05:19:08.117Z,8.32
2018-05-01T05:20:08.107Z,8.36
2018-05-01T05:21:08.103Z,8.33
2018-05-01T05:22:08.091Z,8.35
2018-05-01T05:23:08.096Z,8.40
2018-05-01T05:24:08.083Z,8.39
2018-05-01T05:25:08.080Z,8.35
2018-05-01T05:26:08.073Z,8.39
2018-05-01T05:27:08.058Z,8.40
2018-05-01T05:28:08.060Z,8.44
2018-05-01T05:29:08.055Z,8.45
2018-05-01T05:30:08.045Z,8.44
2018-05-01T05:31:08.041Z,8.50
2018-05-01T05:32:08.041Z,8.50
2018-05-01T05:33:08.025Z,8.47
2018-05-01T05:34:08.026Z,8.48
2018-05-01T05:35:08.023Z,8.47
2018-05-01T05:36:08.071Z,8.51
2018-05-01T05:37:07.996Z,8.47
2018-05-01T05:38:08.001Z,8.48
2018-05-01T05:39:08.007Z,8.54
2018-05-01T05:40:07.974Z,8.58
2018-05-01T05:41:07.971Z,8.58
2018-05-01T05:42:07.981Z,8.55
2018-05-01T05:43:07.983Z,8.60
2018-05-01T05:44:07.960Z,8.58
2018-05-01T05:45:07.968Z,8.58
2018-05-01T05:46:07.974Z,8.54
2018-05-01T05:47:07.944Z,8.57
2018-05-01T05:48:07.933Z,8.65
2018-05-01T05:49:07.931Z,8.66
2018-05-01T05:50:07.927Z,8.54
2018-05-01T05:51:07.920Z,8.53
2018-05-01T05:52:07.903Z,8.68
2018-05-01T05:53:07.914Z,8.50
2018-05-01T05:54:07.905Z,8.60
2018-05-01T05:55:07.897Z,8.63
2018-05-01T05:56:08.029Z,8.68
2018-05-01T05:57:07.877Z,8.68
2018-05-01T05:58:07.874Z,8.69
2018-05-01T05:59:07.877Z,8.66
2018-05-01T06:00:07.855Z,8.68
2018-05-01T06:01:07.885Z,8.71
2018-05-01T06:02:07.857Z,8.75
2018-05-01T06:03:07.861Z,8.72
2018-05-01T06:04:07.840Z,8.72
2018-05-01T06:05:07.836Z,8.76
2018-05-01T06:06:07.828Z,8.69
2018-05-01T06:07:07.823Z,8.69
2018-05-01T06:08:07.820Z,8.66
2018-05-01T06:09:07.810Z,8.75
2018-05-01T06:10:07.805Z,8.78
2018-05-01T06:11:07.814Z,8.65
2018-05-01T06:12:07.808Z,8.75
2018-05-01T06:13:07.849Z,8.65
2018-05-01T06:14:07.784Z,8.65
2018-05-01T06:15:07.764Z,8.71
2018-05-01T06:16:07.760Z,8.65
2018-05-01T06:17:07.754Z,8.57
2018-05-01T06:18:07.755Z,8.66
2018-05-01T06:19:07.750Z,8.53
2018-05-01T06:20:07.744Z,8.60
2018-05-01T06:21:07.743Z,8.53
2018-05-01T06:22:07.729Z,8.66
2018-05-01T06:23:07.731Z,8.66
2018-05-01T06:24:07.712Z,8.65
2018-05-01T06:25:07.718Z,8.68
2018-05-01T06:26:07.711Z,8.69
2018-05-01T06:27:07.723Z,8.53
2018-05-01T06:28:07.696Z,8.50
2018-05-01T06:29:07.696Z,8.58
2018-05-01T06:30:07.756Z,8.62
2018-05-01T06:31:07.844Z,8.63
2018-05-01T06:32:07.675Z,8.66
2018-05-01T06:33:07.665Z,8.60
2018-05-01T06:34:07.665Z,8.55
2018-05-01T06:35:07.673Z,8.62
2018-05-01T06:36:07.651Z,8.58
2018-05-01T06:37:07.655Z,8.55
2018-05-01T06:38:07.647Z,8.57
2018-05-01T06:39:07.729Z,8.66
2018-05-01T06:40:07.657Z,8.71
2018-05-01T06:41:07.643Z,8.71
2018-05-01T06:42:07.670Z,8.69
2018-05-01T06:43:07.633Z,8.69
2018-05-01T06:44:07.638Z,8.66
2018-05-01T06:45:07.712Z,8.66
2018-05-01T06:46:07.608Z,8.69
2018-05-01T06:47:07.659Z,8.71
2018-05-01T06:48:07.665Z,8.72
2018-05-01T06:49:07.597Z,8.72
2018-05-01T06:50:07.600Z,8.69
2018-05-01T06:51:07.575Z,8.66
2018-05-01T06:52:07.586Z,8.66
2018-05-01T06:53:07.557Z,8.66
2018-05-01T06:54:07.562Z,8.73
2018-05-01T06:55:07.544Z,8.66
2018-05-01T06:56:07.540Z,8.66
2018-05-01T06:57:07.538Z,8.68
2018-05-01T06:58:07.533Z,8.78
2018-05-01T06:59:07.524Z,8.71
2018-05-01T07:00:07.537Z,8.78
2018-05-01T07:01:08.141Z,8.69
2018-05-01T07:02:07.508Z,8.69
2018-05-01T07:03:07.513Z,8.76
2018-05-01T07:04:07.750Z,8.83
2018-05-01T07:05:07.556Z,8.78
2018-05-01T07:06:07.480Z,8.73
2018-05-01T07:07:07.477Z,8.79
2018-05-01T07:08:07.463Z,8.88
2018-05-01T07:09:07.515Z,8.97
2018-05-01T07:10:07.598Z,8.88
2018-05-01T07:11:07.453Z,8.86
2018-05-01T07:12:07.457Z,8.86
2018-05-01T07:13:07.705Z,8.96
2018-05-01T07:14:07.434Z,8.96
2018-05-01T07:15:07.464Z,9.02
2018-05-01T07:16:10.186Z,8.91
2018-05-01T07:17:07.439Z,9.04
2018-05-01T07:18:07.589Z,8.94
2018-05-01T07:19:07.413Z,8.96
2018-05-01T07:20:07.408Z,8.99
2018-05-01T07:21:07.483Z,9.05
2018-05-01T07:22:07.487Z,9.10
2018-05-01T07:23:07.422Z,9.05
2018-05-01T07:24:07.397Z,9.01
2018-05-01T07:25:08.013Z,8.99
2018-05-01T07:26:08.007Z,9.02
2018-05-01T07:27:07.380Z,8.99
2018-05-01T07:28:07.367Z,9.09
2018-05-01T07:29:07.361Z,9.12
2018-05-01T07:30:07.356Z,9.16
2018-05-01T07:31:07.383Z,9.27
2018-05-01T07:32:07.358Z,9.28
2018-05-01T07:33:07.346Z,9.24
2018-05-01T07:34:07.356Z,9.28
2018-05-01T07:35:07.327Z,9.25
2018-05-01T07:36:07.365Z,9.21
2018-05-01T07:37:07.343Z,9.24
2018-05-01T07:38:07.352Z,9.35
2018-05-01T07:39:07.307Z,9.38
2018-05-01T07:40:07.421Z,9.43
2018-05-01T07:41:07.309Z,9.49
2018-05-01T07:42:07.303Z,9.57
2018-05-01T07:43:07.381Z,9.68
2018-05-01T07:44:07.290Z,9.76
2018-05-01T07:45:07.282Z,9.79
2018-05-01T07:46:08.009Z,9.83
2018-05-01T07:47:07.278Z,9.91
2018-05-01T07:48:07.299Z,9.82
2018-05-01T07:49:07.334Z,10.00
2018-05-01T07:50:07.262Z,9.97
2018-05-01T07:51:07.252Z,10.00
2018-05-01T07:52:07.318Z,10.04
2018-05-01T07:53:07.264Z,9.93
2018-05-01T07:54:07.279Z,9.85
2018-05-01T07:55:07.233Z,9.64
2018-05-01T07:56:07.234Z,9.70
2018-05-01T07:57:07.217Z,9.67
2018-05-01T07:58:07.427Z,9.78
2018-05-01T07:59:07.219Z,9.86
2018-05-01T08:00:07.208Z,10.03
2018-05-01T08:01:08.015Z,9.85
2018-05-01T08:02:08.069Z,9.88
2018-05-01T08:03:07.212Z,9.83
2018-05-01T08:04:07.201Z,9.78
2018-05-01T08:05:08.110Z,9.91
2018-05-01T08:06:08.188Z,9.91
2018-05-01T08:07:08.092Z,9.91
2018-05-01T08:08:07.205Z,10.00
2018-05-01T08:09:07.485Z,10.14
2018-05-01T08:10:07.198Z,10.17
2018-05-01T08:11:07.214Z,10.24
2018-05-01T08:12:07.285Z,10.34
2018-05-01T08:13:09.024Z,10.34
2018-05-01T08:14:07.256Z,10.42
2018-05-01T08:15:07.224Z,10.51
2018-05-01T08:16:07.182Z,10.52
2018-05-01T08:17:07.184Z,10.51
2018-05-01T08:18:07.179Z,10.40
2018-05-01T08:19:07.187Z,10.51
2018-05-01T08:20:07.149Z,10.46
2018-05-01T08:21:07.163Z,10.47
2018-05-01T08:22:07.156Z,10.46
2018-05-01T08:23:07.184Z,10.58
2018-05-01T08:24:07.181Z,10.63
2018-05-01T08:25:07.134Z,10.68
2018-05-01T08:26:07.217Z,10.70
2018-05-01T08:27:07.179Z,10.84
2018-05-01T08:28:07.169Z,10.83
2018-05-01T08:29:07.111Z,10.86
2018-05-01T08:30:07.127Z,10.78
2018-05-01T08:31:07.128Z,10.91
2018-05-01T08:32:07.138Z,10.78
2018-05-01T08:33:07.108Z,10.91
2018-05-01T08:34:07.139Z,11.03
2018-05-01T08:35:07.156Z,11.01
2018-05-01T08:36:07.164Z,11.07
2018-05-01T08:37:07.120Z,11.28
2018-05-01T08:38:07.100Z,11.17
2018-05-01T08:39:07.107Z,11.27
2018-05-01T08:40:07.346Z,11.13
2018-05-01T08:41:07.097Z,11.14
2018-05-01T08:42:07.111Z,11.14
2018-05-01T08:43:07.702Z,11.27
2018-05-01T08:44:07.109Z,11.28
2018-05-01T08:45:07.118Z,11.17
2018-05-01T08:46:07.183Z,11.13
2018-05-01T08:47:07.059Z,11.20
2018-05-01T08:48:07.112Z,11.11
2018-05-01T08:49:07.102Z,11.11
2018-05-01T08:50:07.107Z,10.98
2018-05-01T08:51:07.044Z,10.96
2018-05-01T08:52:07.584Z,10.81
2018-05-01T08:53:07.076Z,10.73
2018-05-01T08:54:07.052Z,10.51
2018-05-01T08:55:07.120Z,10.40
2018-05-01T08:56:07.094Z,10.33
2018-05-01T08:57:07.036Z,10.43
2018-05-01T08:58:07.034Z,10.52
2018-05-01T08:59:07.028Z,10.55
2018-05-01T09:00:07.055Z,10.60
2018-05-01T09:01:07.590Z,10.58
2018-05-01T09:02:07.044Z,10.77
2018-05-01T09:03:07.022Z,10.80
2018-05-01T09:04:07.033Z,11.01
2018-05-01T09:05:07.044Z,11.16
2018-05-01T09:06:07.053Z,11.11
2018-05-01T09:07:06.994Z,11.41
2018-05-01T09:08:07.022Z,11.53
2018-05-01T09:09:06.994Z,11.59
2018-05-01T09:10:06.995Z,11.71
2018-05-01T09:11:07.000Z,11.62
2018-05-01T09:12:06.971Z,11.35
2018-05-01T09:13:07.018Z,11.27
2018-05-01T09:14:07.010Z,11.31
2018-05-01T09:15:07.644Z,11.16
2018-05-01T09:16:07.109Z,11.16
2018-05-01T09:17:07.002Z,11.09
2018-05-01T09:18:07.173Z,10.78
2018-05-01T09:19:06.975Z,10.60
2018-05-01T09:20:06.967Z,10.60
2018-05-01T09:21:06.978Z,10.83
2018-05-01T09:22:07.014Z,10.98
2018-05-01T09:23:06.961Z,10.98
2018-05-01T09:24:07.004Z,11.14
2018-05-01T09:25:06.964Z,11.27
2018-05-01T09:26:06.973Z,11.36
2018-05-01T09:27:06.966Z,11.57
2018-05-01T09:28:06.974Z,11.72
2018-05-01T09:29:07.012Z,11.64
2018-05-01T09:30:07.000Z,11.64
2018-05-01T09:31:06.945Z,11.99
2018-05-01T09:32:06.950Z,12.13
2018-05-01T09:33:06.960Z,12.42
2018-05-01T09:34:06.968Z,12.39
2018-05-01T09:35:06.928Z,12.59
2018-05-01T09:36:06.968Z,12.38
2018-05-01T09:37:06.936Z,12.12
2018-05-01T09:38:06.946Z,11.93
2018-05-01T09:39:06.964Z,11.65
2018-05-01T09:40:06.956Z,11.77
2018-05-01T09:41:07.018Z,12.04
2018-05-01T09:42:06.945Z,12.16
2018-05-01T09:43:06.923Z,12.37
2018-05-01T09:44:06.934Z,12.60
2018-05-01T09:45:06.922Z,12.71
2018-05-01T09:46:06.948Z,12.70
2018-05-01T09:47:06.927Z,12.62
2018-05-01T09:48:06.925Z,12.39
2018-05-01T09:49:06.962Z,12.49
2018-05-01T09:50:06.933Z,12.71
2018-05-01T09:51:06.956Z,12.79
2018-05-01T09:52:06.940Z,12.84
2018-05-01T09:53:06.947Z,12.92
2018-05-01T09:54:06.912Z,12.87
2018-05-01T09:55:06.888Z,12.93
2018-05-01T09:56:06.898Z,12.84
2018-05-01T09:57:06.922Z,12.78
2018-05-01T09:58:06.920Z,12.56
2018-05-01T09:59:06.944Z,12.23
2018-05-01T10:00:06.915Z,12.23
2018-05-01T10:01:06.901Z,12.24
2018-05-01T10:02:06.895Z,12.06
2018-05-01T10:03:06.942Z,12.42
2018-05-01T10:04:06.954Z,12.74
2018-05-01T10:05:07.532Z,12.69
2018-05-01T10:06:07.567Z,12.60
2018-05-01T10:07:06.920Z,12.57
2018-05-01T10:08:06.888Z,12.96
2018-05-01T10:09:06.877Z,13.14
2018-05-01T10:10:06.901Z,13.02
2018-05-01T10:11:06.902Z,12.60
2018-05-01T10:12:06.902Z,12.88
2018-05-01T10:13:06.905Z,13.18
2018-05-01T10:14:06.887Z,13.30
2018-05-01T10:15:06.932Z,13.52
2018-05-01T10:16:06.959Z,13.84
2018-05-01T10:17:06.875Z,14.13
2018-05-01T10:18:06.902Z,14.38
2018-05-01T10:19:06.939Z,14.44
2018-05-01T10:20:06.918Z,14.20
2018-05-01T10:21:06.894Z,13.61
2018-05-01T10:22:06.886Z,14.07
2018-05-01T10:23:06.868Z,14.57
2018-05-01T10:24:06.881Z,14.68
2018-05-01T10:25:06.882Z,15.09
2018-05-01T10:26:06.875Z,15.17
2018-05-01T10:27:06.890Z,14.54
2018-05-01T10:28:06.913Z,14.47
2018-05-01T10:29:06.917Z,14.39
2018-05-01T10:30:06.894Z,14.68
2018-05-01T10:31:06.921Z,14.71
2018-05-01T10:32:06.899Z,14.75
2018-05-01T10:33:06.904Z,14.84
2018-05-01T10:34:06.929Z,14.65
2018-05-01T10:35:06.940Z,14.75
2018-05-01T10:36:06.950Z,15.15
2018-05-01T10:37:06.904Z,15.59
2018-05-01T10:38:06.958Z,15.35
2018-05-01T10:39:06.942Z,15.01
2018-05-01T10:40:06.972Z,15.46
2018-05-01T10:41:06.896Z,15.70
2018-05-01T10:42:06.891Z,15.54
2018-05-01T10:43:06.906Z,15.97
2018-05-01T10:44:06.991Z,16.67
2018-05-01T10:45:06.921Z,16.50
2018-05-01T10:46:06.978Z,16.33
2018-05-01T10:47:06.931Z,15.78
2018-05-01T10:48:06.933Z,16.44
2018-05-01T10:49:06.937Z,16.86
2018-05-01T10:50:06.949Z,17.36
2018-05-01T10:51:06.956Z,17.84
2018-05-01T10:52:06.961Z,17.40
2018-05-01T10:53:06.986Z,17.44
2018-05-01T10:54:06.985Z,16.86
2018-05-01T10:55:06.992Z,16.73
2018-05-01T10:56:07.047Z,16.75
2018-05-01T10:57:07.086Z,17.08
2018-05-01T10:58:07.057Z,17.17
2018-05-01T10:59:07.024Z,17.14
2018-05-01T11:00:07.023Z,17.15
2018-05-01T11:01:07.059Z,17.15
2018-05-01T11:02:07.009Z,17.28
2018-05-01T11:03:07.461Z,17.66
2018-05-01T11:04:07.049Z,17.46
2018-05-01T11:05:07.049Z,17.13
2018-05-01T11:06:07.067Z,17.74
2018-05-01T11:07:07.058Z,17.66
2018-05-01T11:08:07.056Z,17.63
2018-05-01T11:09:07.080Z,17.89
2018-05-01T11:10:07.085Z,17.89
2018-05-01T11:11:07.095Z,17.94
2018-05-01T11:12:07.097Z,18.76
2018-05-01T11:13:07.100Z,19.46
2018-05-01T11:14:07.095Z,20.18
2018-05-01T11:15:07.210Z,19.84
2018-05-01T11:16:07.130Z,20.54
2018-05-01T11:17:07.126Z,19.94
2018-05-01T11:18:09.635Z,19.69
2018-05-01T11:19:07.696Z,19.55
2018-05-01T11:20:07.160Z,18.49
2018-05-01T11:21:07.145Z,18.39
2018-05-01T11:22:07.169Z,18.25
2018-05-01T11:23:07.189Z,18.33
2018-05-01T11:24:07.192Z,19.47
2018-05-01T11:25:07.205Z,19.28
2018-05-01T11:26:07.313Z,19.91
2018-05-01T11:27:07.208Z,19.68
2018-05-01T11:28:07.212Z,18.97
2018-05-01T11:29:07.220Z,19.08
2018-05-01T11:30:07.221Z,19.58
2018-05-01T11:31:07.285Z,18.49
2018-05-01T11:32:07.233Z,17.79
2018-05-01T11:33:07.377Z,17.70
2018-05-01T11:34:07.337Z,17.81
2018-05-01T11:35:07.397Z,18.21
2018-05-01T11:36:07.315Z,18.24
2018-05-01T11:37:07.275Z,17.59
2018-05-01T11:38:07.391Z,16.70
2018-05-01T11:39:07.281Z,17.17
2018-05-01T11:40:07.298Z,17.35
2018-05-01T11:41:07.302Z,17.36
2018-05-01T11:42:07.314Z,16.49
2018-05-01T11:43:07.356Z,16.52
2018-05-01T11:44:07.328Z,17.03
2018-05-01T11:45:07.384Z,18.83
2018-05-01T11:46:07.336Z,18.37
2018-05-01T11:47:07.397Z,17.97
2018-05-01T11:48:07.354Z,18.67
2018-05-01T11:49:07.432Z,18.42
2018-05-01T11:50:07.366Z,18.52
2018-05-01T11:51:07.397Z,17.99
2018-05-01T11:52:07.403Z,19.53
2018-05-01T11:53:07.496Z,20.42
2018-05-01T11:54:07.424Z,20.34
2018-05-01T11:55:07.435Z,21.44
2018-05-01T11:56:07.396Z,21.94
2018-05-01T11:57:07.584Z,22.14
2018-05-01T11:58:07.419Z,21.38
2018-05-01T11:59:07.435Z,21.95
2018-05-01T12:00:07.433Z,22.28
2018-05-01T12:01:08.228Z,21.94
2018-05-01T12:02:07.461Z,20.56
2018-05-01T12:03:07.512Z,21.29
2018-05-01T12:04:07.505Z,22.27
2018-05-01T12:05:07.485Z,21.85
2018-05-01T12:06:07.501Z,21.99
2018-05-01T12:07:07.511Z,23.08
2018-05-01T12:08:07.519Z,23.55
2018-05-01T12:09:07.837Z,22.29
2018-05-01T12:10:07.550Z,22.78
2018-05-01T12:11:07.567Z,23.42
2018-05-01T12:12:07.611Z,23.15
2018-05-01T12:13:07.596Z,23.22
2018-05-01T12:14:07.601Z,24.04
2018-05-01T12:15:07.622Z,24.07
2018-05-01T12:16:07.676Z,22.68
2018-05-01T12:17:07.674Z,20.90
2018-05-01T12:18:07.778Z,18.79
2018-05-01T12:19:07.749Z,18.47
2018-05-01T12:20:07.702Z,18.24
2018-05-01T12:21:07.710Z,18.95
2018-05-01T12:22:07.724Z,19.05
2018-05-01T12:23:08.763Z,18.90
2018-05-01T12:24:07.790Z,19.46
2018-05-01T12:25:07.895Z,19.47
2018-05-01T12:26:07.839Z,18.82
2018-05-01T12:27:07.801Z,19.13
2018-05-01T12:28:07.839Z,18.82
2018-05-01T12:29:07.818Z,18.94
2018-05-01T12:30:07.876Z,18.12
2018-05-01T12:31:07.866Z,17.66
2018-05-01T12:32:07.896Z,17.89
2018-05-01T12:33:07.860Z,18.13
2018-05-01T12:34:07.856Z,18.47
2018-05-01T12:35:07.904Z,18.04
2018-05-01T12:36:07.943Z,17.54
2018-05-01T12:37:08.109Z,16.75
2018-05-01T12:38:07.991Z,16.38
2018-05-01T12:39:07.967Z,16.67
2018-05-01T12:40:07.929Z,16.40
2018-05-01T12:41:07.950Z,16.48
2018-05-01T12:42:07.940Z,16.52
2018-05-01T12:43:07.955Z,16.73
2018-05-01T12:44:08.032Z,17.15
2018-05-01T12:45:07.957Z,17.28
2018-05-01T12:46:07.968Z,17.15
2018-05-01T12:47:08.280Z,17.06
2018-05-01T12:48:08.041Z,17.17
2018-05-01T12:49:08.051Z,16.92
2018-05-01T12:50:08.113Z,17.23
2018-05-01T12:51:07.983Z,17.67
2018-05-01T12:52:07.966Z,18.06
2018-05-01T12:53:08.019Z,18.37
2018-05-01T12:54:08.008Z,18.52
2018-05-01T12:55:08.252Z,18.98
2018-05-01T12:56:08.066Z,19.21
2018-05-01T12:57:08.096Z,19.23
2018-05-01T12:58:08.020Z,18.43
2018-05-01T12:59:08.077Z,17.99
2018-05-01T13:00:08.036Z,17.67
2018-05-01T13:01:08.042Z,17.22
2018-05-01T13:02:08.052Z,17.07
2018-05-01T13:03:08.056Z,17.41
2018-05-01T13:04:07.993Z,17.41
2018-05-01T13:05:08.110Z,17.23
2018-05-01T13:06:08.051Z,16.81
2018-05-01T13:07:08.151Z,16.20
2018-05-01T13:08:08.041Z,16.38
2018-05-01T13:09:08.025Z,16.33
2018-05-01T13:10:08.048Z,16.35
2018-05-01T13:11:08.029Z,16.04
2018-05-01T13:12:08.021Z,16.09
2018-05-01T13:13:08.029Z,16.74
2018-05-01T13:14:08.063Z,17.14
2018-05-01T13:15:08.061Z,16.83
2018-05-01T13:16:08.077Z,16.07
2018-05-01T13:17:08.081Z,15.78
2018-05-01T13:18:08.109Z,15.70
2018-05-01T13:19:08.094Z,15.70
2018-05-01T13:20:08.053Z,15.97
2018-05-01T13:21:08.046Z,15.88
2018-05-01T13:22:08.055Z,15.92
2018-05-01T13:23:08.092Z,15.81
2018-05-01T13:24:08.097Z,16.01
2018-05-01T13:25:08.065Z,15.63
2018-05-01T13:26:08.125Z,15.61
2018-05-01T13:27:08.103Z,15.89
2018-05-01T13:28:08.059Z,15.79
2018-05-01T13:29:08.068Z,15.60
2018-05-01T13:30:08.211Z,15.39
2018-05-01T13:31:08.118Z,15.59
2018-05-01T13:32:08.082Z,16.01
2018-05-01T13:33:08.161Z,15.84
2018-05-01T13:34:08.113Z,16.11
2018-05-01T13:35:08.083Z,16.26
2018-05-01T13:36:08.108Z,15.94
2018-05-01T13:37:08.151Z,15.63
2018-05-01T13:38:08.119Z,15.78
2018-05-01T13:39:08.129Z,16.15
2018-05-01T13:40:08.161Z,16.09
2018-05-01T13:41:08.144Z,16.11
2018-05-01T13:42:08.121Z,15.96
2018-05-01T13:43:08.108Z,15.63
2018-05-01T13:44:08.119Z,15.82
2018-05-01T13:45:08.121Z,15.79
2018-05-01T13:46:08.112Z,15.76
2018-05-01T13:47:08.121Z,15.79
2018-05-01T13:48:08.138Z,15.61
2018-05-01T13:49:08.119Z,15.93
2018-05-01T13:50:08.152Z,15.86